createdAt,value
2023-08-24T00:00:43.493Z,82.44
2023-08-24T00:04:05.946Z,82.64
2023-08-24T00:07:27.969Z,82.96
2023-08-24T00:10:50.696Z,82.84
2023-08-24T00:14:12.516Z,83.06
2023-08-24T00:17:34.149Z,83.48
2023-08-24T00:20:55.570Z,83.41
2023-08-24T00:24:16.986Z,83.13
2023-08-24T00:27:40.111Z,83.39
2023-08-24T00:31:02.328Z,83.43
2023-08-24T00:34:24.022Z,83.46
2023-08-24T00:37:45.543Z,83.28
2023-08-24T00:41:07.547Z,83.77
2023-08-24T00:44:30.403Z,83.63
2023-08-24T00:47:53.375Z,83.95
2023-08-24T00:51:16.107Z,83.98
2023-08-24T00:54:41.465Z,84.46
2023-08-24T00:58:05.144Z,85.04
2023-08-24T01:01:28.792Z,84.79
2023-08-24T01:04:50.647Z,84.89
2023-08-24T01:08:12.481Z,85.40
2023-08-24T01:11:44.992Z,85.18
2023-08-24T01:15:15.278Z,85.06
2023-08-24T01:18:38.880Z,85.24
2023-08-24T01:22:04.338Z,85.51
2023-08-24T01:25:37.832Z,85.57
2023-08-24T01:29:01.819Z,85.47
2023-08-24T01:32:23.107Z,85.77
2023-08-24T01:35:44.779Z,85.32
2023-08-24T01:39:12.588Z,85.12
2023-08-24T01:42:37.636Z,85.24
2023-08-24T01:46:03.681Z,85.01
2023-08-24T01:49:26.878Z,84.89
2023-08-24T01:52:48.695Z,85.01
2023-08-24T01:56:12.181Z,85.10
2023-08-24T01:59:34.107Z,85.33
2023-08-24T02:02:57.213Z,84.72
2023-08-24T02:06:18.937Z,84.71
2023-08-24T02:09:40.800Z,84.91
2023-08-24T02:13:02.694Z,84.74
2023-08-24T02:16:24.177Z,84.91
2023-08-24T02:19:48.859Z,85.00
2023-08-24T02:23:10.382Z,85.26
2023-08-24T02:26:32.276Z,84.82
2023-08-24T02:29:55.803Z,84.47
2023-08-24T02:33:17.449Z,84.54
2023-08-24T02:36:40.726Z,84.40
2023-08-24T02:40:02.335Z,84.48
2023-08-24T02:43:24.820Z,84.17
2023-08-24T02:46:47.354Z,83.89
2023-08-24T02:50:09.642Z,83.24
2023-08-24T02:53:33.310Z,83.43
2023-08-24T02:56:56.128Z,83.87
2023-08-24T03:00:18.193Z,83.88
2023-08-24T03:03:39.986Z,83.65
2023-08-24T03:07:01.623Z,83.78
2023-08-24T03:10:24.420Z,83.71
2023-08-24T03:13:46.285Z,83.88
2023-08-24T03:17:08.564Z,84.23
2023-08-24T03:20:30.448Z,84.63
2023-08-24T03:23:52.395Z,84.29
2023-08-24T03:27:16.219Z,83.76
2023-08-24T03:30:39.031Z,83.95
2023-08-24T03:34:00.758Z,83.75
2023-08-24T03:37:22.754Z,83.98
2023-08-24T03:40:44.134Z,83.60
2023-08-24T03:44:07.275Z,83.17
2023-08-24T03:47:29.195Z,83.59
2023-08-24T03:50:51.154Z,83.80
2023-08-24T03:54:12.309Z,83.72
2023-08-24T03:57:34.742Z,83.69
2023-08-24T04:00:58.782Z,83.37
2023-08-24T04:04:21.145Z,83.88
2023-08-24T04:07:43.158Z,83.65
2023-08-24T04:11:05.303Z,83.46
2023-08-24T04:14:26.598Z,83.31
2023-08-24T04:17:49.720Z,83.67
2023-08-24T04:21:12.878Z,83.36
2023-08-24T04:24:34.582Z,83.72
2023-08-24T04:27:56.403Z,83.65
2023-08-24T04:31:17.880Z,83.54
2023-08-24T04:34:41.068Z,83.52
2023-08-24T04:38:02.620Z,83.57
2023-08-24T04:41:24.008Z,84.19
2023-08-24T04:44:45.325Z,84.14
2023-08-24T04:48:07.962Z,84.65
2023-08-24T04:51:31.157Z,84.61
2023-08-24T04:54:52.450Z,84.30
2023-08-24T04:58:15.909Z,84.20
2023-08-24T05:01:38.092Z,82.95
2023-08-24T05:04:59.394Z,83.30
2023-08-24T05:08:22.257Z,83.89
2023-08-24T05:11:43.724Z,83.81
2023-08-24T05:15:05.476Z,83.60
2023-08-24T05:18:26.985Z,83.36
2023-08-24T05:21:48.319Z,83.29
2023-08-24T05:25:12.137Z,82.23
2023-08-24T05:28:34.089Z,82.38
2023-08-24T05:31:55.791Z,82.49
2023-08-24T05:35:17.221Z,82.91
2023-08-24T05:38:41.468Z,82.17
2023-08-24T05:42:11.713Z,82.29
2023-08-24T05:45:33.834Z,82.53
2023-08-24T05:48:55.239Z,82.89
2023-08-24T05:52:17.252Z,82.17
2023-08-24T05:55:39.278Z,81.75
2023-08-24T05:59:04.179Z,81.89
2023-08-24T06:02:28.470Z,81.99
2023-08-24T06:05:50.288Z,81.09
2023-08-24T06:09:12.146Z,80.56
2023-08-24T06:12:33.899Z,80.35
2023-08-24T06:15:56.674Z,80.00
2023-08-24T06:19:18.211Z,80.59
2023-08-24T06:22:40.133Z,80.84
2023-08-24T06:26:02.263Z,80.29
2023-08-24T06:29:24.032Z,76.40
2023-08-24T06:32:47.056Z,75.42
2023-08-24T06:36:09.650Z,75.28
2023-08-24T06:39:31.151Z,74.62
2023-08-24T06:42:52.607Z,74.57
2023-08-24T06:46:14.760Z,73.80
2023-08-24T06:49:39.035Z,73.66
2023-08-24T07:00:30.257Z,71.61
2023-08-24T07:03:51.671Z,71.47
2023-08-24T07:07:14.918Z,71.20
2023-08-24T07:10:36.344Z,71.42
2023-08-24T07:13:57.635Z,70.37
2023-08-24T07:17:20.587Z,69.90
2023-08-24T07:20:42.321Z,69.80
2023-08-24T07:24:06.211Z,67.87
2023-08-24T07:27:29.796Z,66.67
2023-08-24T07:30:51.363Z,65.20
2023-08-24T07:34:13.350Z,66.55
2023-08-24T07:37:35.370Z,65.19
2023-08-24T07:40:58.381Z,64.17
2023-08-24T07:44:20.029Z,63.95
2023-08-24T07:47:41.678Z,61.96
2023-08-24T07:51:03.510Z,62.12
2023-08-24T07:54:26.128Z,61.40
2023-08-24T07:57:50.316Z,61.72
2023-08-24T08:01:12.683Z,60.58
2023-08-24T08:04:34.912Z,60.27
2023-08-24T08:07:56.848Z,60.05
2023-08-24T08:11:18.492Z,59.75
2023-08-24T08:14:41.110Z,60.15
2023-08-24T08:18:02.438Z,58.80
2023-08-24T08:21:24.926Z,59.30
2023-08-24T08:24:46.496Z,58.51
2023-08-24T08:28:07.805Z,58.57
2023-08-24T08:31:30.645Z,60.15
2023-08-24T08:34:52.159Z,59.52
2023-08-24T08:38:13.820Z,61.21
2023-08-24T08:41:43.618Z,61.91
2023-08-24T08:45:10.234Z,61.42
2023-08-24T08:48:34.621Z,59.94
2023-08-24T08:51:56.540Z,59.67
2023-08-24T08:55:18.541Z,61.28
2023-08-24T08:58:44.556Z,59.49
2023-08-24T09:02:08.332Z,58.18
2023-08-24T09:05:31.797Z,58.41
2023-08-24T09:08:54.833Z,58.55
2023-08-24T09:12:16.631Z,58.93
2023-08-24T09:15:38.416Z,59.83
2023-08-24T09:19:00.076Z,60.68
2023-08-24T09:22:23.094Z,59.04
2023-08-24T09:25:48.284Z,58.32
2023-08-24T09:29:14.335Z,58.04
2023-08-24T09:32:36.449Z,57.25
2023-08-24T09:36:02.395Z,59.36
2023-08-24T09:39:25.374Z,58.49
2023-08-24T09:42:47.248Z,57.29
2023-08-24T09:46:09.219Z,56.94
2023-08-24T09:49:31.125Z,58.13
2023-08-24T09:52:55.966Z,58.00
2023-08-24T09:56:19.448Z,57.62
2023-08-24T09:59:45.728Z,55.74
2023-08-24T10:03:08.123Z,56.31
2023-08-24T10:06:30.496Z,54.46
2023-08-24T10:09:59.206Z,52.25
2023-08-24T10:13:29.832Z,53.50
2023-08-24T10:16:53.571Z,53.69
2023-08-24T10:20:16.624Z,53.03
2023-08-24T10:23:40.006Z,52.18
2023-08-24T10:27:04.388Z,51.72
2023-08-24T10:30:27.844Z,50.80
2023-08-24T10:33:50.136Z,48.90
2023-08-24T10:37:13.200Z,49.71
2023-08-24T10:40:36.007Z,50.67
2023-08-24T10:44:10.036Z,50.44
2023-08-24T10:47:47.060Z,50.25
2023-08-24T10:51:27.834Z,49.07
2023-08-24T10:54:51.253Z,49.63
2023-08-24T10:58:18.420Z,48.30
2023-08-24T11:01:42.043Z,47.36
2023-08-24T11:05:10.148Z,48.98
2023-08-24T11:08:47.248Z,47.73
2023-08-24T11:12:08.709Z,48.60
2023-08-24T11:15:34.030Z,46.57
2023-08-24T11:18:55.907Z,45.15
2023-08-24T11:22:19.806Z,46.02
2023-08-24T11:25:41.476Z,45.66
2023-08-24T11:29:07.361Z,45.58
2023-08-24T11:32:29.285Z,45.46
2023-08-24T11:35:51.501Z,45.37
2023-08-24T11:39:20.812Z,45.62
2023-08-24T11:42:42.933Z,45.42
2023-08-24T11:46:05.681Z,46.07
2023-08-24T11:49:28.217Z,42.65
2023-08-24T11:52:50.048Z,42.41
2023-08-24T11:56:14.207Z,42.86
2023-08-24T11:59:36.552Z,43.20
2023-08-24T12:03:00.264Z,42.09
2023-08-24T12:06:21.812Z,42.89
2023-08-24T12:09:44.463Z,42.88
2023-08-24T12:13:09.774Z,43.55
2023-08-24T12:16:34.787Z,43.21
2023-08-24T12:20:02.321Z,43.67
2023-08-24T12:23:29.523Z,42.73
2023-08-24T12:26:58.756Z,42.38
2023-08-24T12:30:22.404Z,43.32
2023-08-24T12:33:45.422Z,42.90
2023-08-24T12:37:07.421Z,43.95
2023-08-24T12:40:28.812Z,42.23
2023-08-24T12:43:50.120Z,42.92
2023-08-24T12:47:13.080Z,43.65
2023-08-24T12:50:34.783Z,41.76
2023-08-24T12:53:56.521Z,42.86
2023-08-24T12:57:18.694Z,42.50
2023-08-24T13:00:40.473Z,42.50
2023-08-24T13:04:03.299Z,41.83
2023-08-24T13:07:24.647Z,41.90
2023-08-24T13:10:47.257Z,42.36
2023-08-24T13:14:08.687Z,41.23
2023-08-24T13:17:32.200Z,42.88
2023-08-24T13:20:55.390Z,41.76
2023-08-24T13:24:17.134Z,41.54
2023-08-24T13:27:38.359Z,41.45
2023-08-24T13:30:59.704Z,41.37
2023-08-24T13:34:21.903Z,42.09
2023-08-24T13:37:46.021Z,41.13
2023-08-24T13:41:07.580Z,40.19
2023-08-24T13:44:29.075Z,40.94
2023-08-24T13:47:51.206Z,40.64
2023-08-24T13:51:13.528Z,41.17
2023-08-24T13:54:37.279Z,41.35
2023-08-24T13:57:58.756Z,42.06
2023-08-24T14:01:20.120Z,42.12
2023-08-24T14:04:41.631Z,41.72
2023-08-24T14:08:03.735Z,42.50
2023-08-24T14:11:27.961Z,40.62
2023-08-24T14:14:50.070Z,40.77
2023-08-24T14:18:13.903Z,40.52
2023-08-24T14:21:44.911Z,41.05
2023-08-24T14:25:08.530Z,40.69
2023-08-24T14:28:51.127Z,41.31
2023-08-24T14:32:12.825Z,40.34
2023-08-24T14:35:34.931Z,41.10
2023-08-24T14:38:56.287Z,40.73
2023-08-24T14:42:17.823Z,40.99
2023-08-24T14:45:41.220Z,41.64
2023-08-24T14:49:02.896Z,40.60
2023-08-24T14:52:24.856Z,40.59
2023-08-24T14:55:46.590Z,40.81
2023-08-24T14:59:08.549Z,39.50
2023-08-24T15:02:33.200Z,39.21
2023-08-24T15:05:59.749Z,39.66
2023-08-24T15:09:21.325Z,39.96
2023-08-24T15:12:43.224Z,39.79
2023-08-24T15:16:05.085Z,38.26
2023-08-24T15:19:28.265Z,39.25
2023-08-24T15:22:50.850Z,39.34
2023-08-24T15:26:12.260Z,38.64
2023-08-24T15:29:33.828Z,38.89
2023-08-24T15:32:55.238Z,40.46
2023-08-24T15:36:18.748Z,38.84
2023-08-24T15:39:41.938Z,39.85
2023-08-24T15:43:03.591Z,40.36
2023-08-24T15:46:25.577Z,40.08
2023-08-24T15:49:46.935Z,41.02
2023-08-24T15:53:09.760Z,41.88
2023-08-24T15:56:31.493Z,42.03
2023-08-24T15:59:53.341Z,42.34
2023-08-24T16:03:14.956Z,42.99
2023-08-24T16:06:36.721Z,43.92
2023-08-24T16:09:59.868Z,44.52
2023-08-24T16:13:23.978Z,44.53
2023-08-24T16:16:45.629Z,45.39
2023-08-24T16:20:10.757Z,45.18
2023-08-24T16:23:33.108Z,46.53
2023-08-24T16:26:56.606Z,47.65
2023-08-24T16:30:20.090Z,48.54
2023-08-24T16:33:41.927Z,47.83
2023-08-24T16:37:03.925Z,48.67
2023-08-24T16:40:25.256Z,50.04
2023-08-24T16:43:48.756Z,50.34
2023-08-24T16:47:10.379Z,50.91
2023-08-24T16:50:31.712Z,51.77
2023-08-24T16:53:53.154Z,52.62
2023-08-24T16:57:15.016Z,52.92
2023-08-24T17:00:38.852Z,52.23
2023-08-24T17:04:00.703Z,53.14
2023-08-24T17:07:24.516Z,53.64
2023-08-24T17:10:46.278Z,53.62
2023-08-24T17:14:08.453Z,54.28
2023-08-24T17:17:31.546Z,54.26
2023-08-24T17:20:53.395Z,54.23
2023-08-24T17:24:15.059Z,54.12
2023-08-24T17:27:36.611Z,55.37
2023-08-24T17:31:00.082Z,55.57
2023-08-24T17:34:24.000Z,56.01
2023-08-24T17:37:45.492Z,56.55
2023-08-24T17:41:08.940Z,56.92
2023-08-24T17:44:31.258Z,55.83
2023-08-24T17:47:53.321Z,56.72
2023-08-24T17:51:17.192Z,57.30
2023-08-24T17:54:39.110Z,57.68
2023-08-24T17:58:00.661Z,57.79
2023-08-24T18:01:22.191Z,57.64
2023-08-24T18:04:46.694Z,58.33
2023-08-24T18:08:10.003Z,58.68
2023-08-24T18:11:31.668Z,59.47
2023-08-24T18:14:53.449Z,59.93
2023-08-24T18:18:15.061Z,60.03
2023-08-24T18:21:36.657Z,60.16
2023-08-24T18:24:59.498Z,60.55
2023-08-24T18:28:20.780Z,60.71
2023-08-24T18:31:42.352Z,61.46
2023-08-24T18:35:04.765Z,62.04
2023-08-24T18:38:27.341Z,62.78
2023-08-24T18:41:51.489Z,62.85
2023-08-24T18:45:13.500Z,63.38
2023-08-24T18:48:36.001Z,63.44
2023-08-24T18:51:57.660Z,62.96
2023-08-24T18:55:18.973Z,62.45
2023-08-24T18:58:42.151Z,60.99
2023-08-24T19:02:04.483Z,60.82
2023-08-24T19:05:26.309Z,60.50
2023-08-24T19:08:47.721Z,59.79
2023-08-24T19:12:09.438Z,58.95
2023-08-24T19:15:32.554Z,59.75
2023-08-24T19:18:54.542Z,60.90
2023-08-24T19:22:16.137Z,61.56
2023-08-24T19:25:37.549Z,61.63
2023-08-24T19:28:58.854Z,61.40
2023-08-24T19:32:21.969Z,60.31
2023-08-24T19:35:43.756Z,59.83
2023-08-24T19:39:05.610Z,60.89
2023-08-24T19:42:27.395Z,62.14
2023-08-24T19:45:49.587Z,61.99
2023-08-24T19:49:12.904Z,62.31
2023-08-24T19:52:35.018Z,62.51
2023-08-24T19:55:56.816Z,63.31
2023-08-24T19:59:18.280Z,63.10
2023-08-24T20:02:41.725Z,61.76
2023-08-24T20:06:05.381Z,64.99
2023-08-24T20:09:27.644Z,63.79
2023-08-24T20:12:48.951Z,64.54
2023-08-24T20:16:10.537Z,65.58
2023-08-24T20:19:32.610Z,67.02
2023-08-24T20:22:59.712Z,68.35
2023-08-24T20:26:22.486Z,69.18
2023-08-24T20:29:44.158Z,68.70
2023-08-24T20:33:06.202Z,68.33
2023-08-24T20:36:28.055Z,68.54
2023-08-24T20:39:50.831Z,68.63
2023-08-24T20:43:13.120Z,68.72
2023-08-24T20:46:34.999Z,69.23
2023-08-24T20:49:57.133Z,69.64
2023-08-24T20:53:18.919Z,69.89
2023-08-24T20:56:42.019Z,70.25
2023-08-24T21:00:06.445Z,70.53
2023-08-24T21:03:28.228Z,70.85
2023-08-24T21:06:50.583Z,70.93
2023-08-24T21:10:12.076Z,71.08
2023-08-24T21:13:35.036Z,71.13
2023-08-24T21:16:56.564Z,71.07
2023-08-24T21:20:18.338Z,71.33
2023-08-24T21:23:39.990Z,71.53
2023-08-24T21:27:01.304Z,70.98
2023-08-24T21:30:25.682Z,71.11
2023-08-24T21:33:46.937Z,71.55
2023-08-24T21:37:08.117Z,71.69
2023-08-24T21:40:29.532Z,71.89
2023-08-24T21:43:51.400Z,72.40
2023-08-24T21:47:14.688Z,71.92
2023-08-24T21:50:38.821Z,70.99
2023-08-24T21:54:00.181Z,70.94
2023-08-24T21:57:23.666Z,70.69
2023-08-24T22:00:45.874Z,69.97
2023-08-24T22:04:08.904Z,69.37
2023-08-24T22:07:30.359Z,69.19
2023-08-24T22:10:51.920Z,69.30
2023-08-24T22:14:13.426Z,69.34
2023-08-24T22:17:34.832Z,69.22
2023-08-24T22:20:57.956Z,69.59
2023-08-24T22:24:19.645Z,69.93
2023-08-24T22:27:40.978Z,69.68
2023-08-24T22:31:02.685Z,69.68
2023-08-24T22:34:24.420Z,70.81
2023-08-24T22:37:48.207Z,71.15
2023-08-24T22:41:10.473Z,70.78
2023-08-24T22:44:31.877Z,69.16
2023-08-24T22:47:53.576Z,69.25
2023-08-24T22:51:15.515Z,69.02
2023-08-24T22:54:38.954Z,68.16
2023-08-24T22:58:00.366Z,68.63
2023-08-24T23:01:23.253Z,69.39
2023-08-24T23:04:45.293Z,68.33
2023-08-24T23:08:08.161Z,68.45
2023-08-24T23:11:31.432Z,69.59
2023-08-24T23:14:53.961Z,71.55
2023-08-24T23:18:15.711Z,72.14
2023-08-24T23:21:37.018Z,72.94
2023-08-24T23:24:58.968Z,72.88
2023-08-24T23:28:22.191Z,73.41
2023-08-24T23:31:43.664Z,74.41
2023-08-24T23:35:05.510Z,74.39
2023-08-24T23:38:26.936Z,75.32
2023-08-24T23:41:48.230Z,75.69
2023-08-24T23:45:12.951Z,75.49
2023-08-24T23:48:35.653Z,75.88
2023-08-24T23:51:57.417Z,76.24
2023-08-24T23:55:19.010Z,76.34
2023-08-24T23:58:40.463Z,77.06
